LFRM/LME METAR and TAF weather

Enter ICAO airport designator
Station Type Date Time Source
LFRM METAR 2022/07/03 15:00 UTC NOAA

LFRM 031500Z AUTO 27007KT 220V350 CAVOK 24/10 Q1021 NOSIG


Station Type Date Time Source
LFRM Decoded METAR 2022/07/03 15:00 UTC NOAA

Le Mans, France (LFRM) 47-56N 000-12E 52M
Jul 03, 2022 - 11:00 AM EDT / 2022.07.03 1500 UTC
Wind: from the W (270 degrees) at 8 MPH (7 KT) (direction variable):0
Visibility: greater than 7 mile(s):0
Temperature: 75 F (24 C)
Dew Point: 50 F (10 C)
Relative Humidity: 41%
Pressure (altimeter): 30.15 in. Hg (1021 hPa)
ob: LFRM 031500Z AUTO 27007KT 220V350 CAVOK 24/10 Q1021 NOSIG
cycle: 15

Station Type Date Time Source
LFRM TAF 2022/07/03 12:24 UTC NOAA

TAF TAF LFRM 031100Z 0312/0412 VRB04KT CAVOK
BECMG 0317/0319 34010KT
BECMG 0405/0407 04005KT

Example: see airport list